Time;durP1;ratioP1;P1;durP2;ratioP2;P2;SDS_P1;SDS_P2;PMS_P1;PMS_P2;Temp;Humidity;BMP_temperature;BMP_pressure;BME280_temperature;BME280_humidity;BME280_pressure;Samples;Min_cycle;Max_cycle;Signal;HPM_P1;HPM_P2
2020/12/29 00:01:33;;;;;;;7.45;4.25;;;;;;;;;;6187192;23;20493;-83
2020/12/29 00:03:59;;;;;;;6.55;3.97;;;;;;;;;;6187108;23;20021;-82
2020/12/29 00:06:24;;;;;;;5.22;3.65;;;;;;;;;;6186564;23;20035;-82
2020/12/29 00:08:50;;;;;;;6.35;3.97;;;;;;;;;;6186570;23;20052;-83
2020/12/29 00:11:17;;;;;;;5.32;3.55;;;;;;;;;;6187348;23;20628;-83
2020/12/29 00:13:43;;;;;;;6.32;4.07;;;;;;;;;;6187090;23;20326;-82
2020/12/29 00:16:09;;;;;;;6.03;3.80;;;;;;;;;;6186987;23;20025;-82
2020/12/29 00:18:35;;;;;;;6.30;3.72;;;;;;;;;;6186890;23;20055;-82
2020/12/29 00:21:02;;;;;;;6.07;3.78;;;;;;;;;;6186627;23;20075;-82
2020/12/29 00:23:27;;;;;;;4.93;3.40;;;;;;;;;;6186607;23;20032;-83
2020/12/29 00:25:54;;;;;;;6.35;2.97;;;;;;;;;;6186917;23;20017;-83
2020/12/29 00:28:20;;;;;;;5.60;3.42;;;;;;;;;;6186994;23;20025;-83
2020/12/29 00:30:47;;;;;;;5.25;3.10;;;;;;;;;;6186954;23;20342;-83
2020/12/29 00:33:14;;;;;;;4.28;2.67;;;;;;;;;;6186809;23;20533;-83
2020/12/29 00:35:40;;;;;;;5.13;2.90;;;;;;;;;;6186204;23;20028;-83
2020/12/29 00:38:06;;;;;;;5.53;2.97;;;;;;;;;;6186968;23;20021;-83
2020/12/29 00:40:32;;;;;;;5.32;2.60;;;;;;;;;;6188575;23;20045;-83
2020/12/29 00:42:58;;;;;;;5.25;2.42;;;;;;;;;;6187538;23;20048;-85
2020/12/29 00:45:24;;;;;;;3.58;2.10;;;;;;;;;;6187784;23;20099;-83
2020/12/29 00:47:51;;;;;;;3.63;2.20;;;;;;;;;;6187494;23;20025;-82
2020/12/29 00:50:24;;;;;;;4.90;2.42;;;;;;;;;;6187212;23;20442;-84
2020/12/29 00:52:51;;;;;;;5.90;2.58;;;;;;;;;;6187430;23;20027;-83
2020/12/29 00:55:18;;;;;;;3.65;1.90;;;;;;;;;;6187032;23;20052;-83
2020/12/29 00:57:44;;;;;;;3.95;1.80;;;;;;;;;;6187829;23;20025;-84
2020/12/29 01:00:09;;;;;;;4.40;2.17;;;;;;;;;;6186981;23;20028;-82
2020/12/29 01:02:35;;;;;;;3.85;2.10;;;;;;;;;;6186735;23;20072;-82
2020/12/29 01:05:03;;;;;;;3.35;1.95;;;;;;;;;;6186922;23;20029;-82
2020/12/29 01:07:29;;;;;;;2.40;1.52;;;;;;;;;;6187097;23;20096;-82
2020/12/29 01:09:54;;;;;;;4.03;1.67;;;;;;;;;;6186751;23;20663;-83
2020/12/29 01:12:20;;;;;;;5.57;2.10;;;;;;;;;;6188562;23;20028;-83
2020/12/29 01:14:46;;;;;;;2.45;1.73;;;;;;;;;;6188789;23;20346;-83
2020/12/29 01:17:13;;;;;;;3.28;1.65;;;;;;;;;;6188525;23;20020;-83
2020/12/29 01:19:39;;;;;;;4.32;1.65;;;;;;;;;;6188246;23;20021;-83
2020/12/29 01:22:06;;;;;;;2.63;1.52;;;;;;;;;;6188335;23;20675;-83
2020/12/29 01:24:31;;;;;;;2.78;1.35;;;;;;;;;;6188222;23;20025;-83
2020/12/29 01:26:58;;;;;;;2.55;1.33;;;;;;;;;;6188312;23;20075;-83
2020/12/29 01:29:24;;;;;;;3.00;1.42;;;;;;;;;;6188060;23;20052;-83
2020/12/29 01:31:50;;;;;;;2.85;1.40;;;;;;;;;;6188395;23;20017;-82
2020/12/29 01:34:16;;;;;;;2.95;1.30;;;;;;;;;;6187924;23;20043;-83
2020/12/29 01:36:42;;;;;;;3.58;1.60;;;;;;;;;;6187641;23;20025;-83
2020/12/29 01:39:09;;;;;;;3.08;1.73;;;;;;;;;;6187927;23;20101;-83
2020/12/29 01:41:35;;;;;;;2.53;1.50;;;;;;;;;;6187712;23;20021;-83
2020/12/29 01:44:12;;;;;;;4.50;2.03;;;;;;;;;;6187896;23;20521;-83
2020/12/29 01:46:39;;;;;;;4.10;2.00;;;;;;;;;;6188051;23;20032;-83
2020/12/29 01:49:06;;;;;;;2.20;1.33;;;;;;;;;;6187271;23;20025;-83
2020/12/29 01:51:32;;;;;;;2.80;1.60;;;;;;;;;;6188065;23;20074;-83
2020/12/29 01:53:58;;;;;;;2.65;1.40;;;;;;;;;;6187597;23;20029;-83
2020/12/29 01:56:25;;;;;;;3.45;1.80;;;;;;;;;;6187850;23;20394;-83
2020/12/29 01:58:51;;;;;;;3.03;1.80;;;;;;;;;;6187774;23;20025;-83
2020/12/29 02:01:16;;;;;;;5.10;2.28;;;;;;;;;;6187240;23;20027;-82
2020/12/29 02:03:42;;;;;;;3.50;1.73;;;;;;;;;;6187479;23;20349;-83
2020/12/29 02:06:09;;;;;;;2.90;1.52;;;;;;;;;;6187428;23;20119;-83
2020/12/29 02:08:35;;;;;;;3.35;1.90;;;;;;;;;;6187429;23;20025;-83
2020/12/29 02:11:01;;;;;;;1.92;1.52;;;;;;;;;;6187384;23;20021;-81
2020/12/29 02:13:28;;;;;;;3.08;1.50;;;;;;;;;;6187583;23;20021;-83
2020/12/29 02:15:54;;;;;;;2.58;1.42;;;;;;;;;;6187537;23;20075;-83
2020/12/29 02:18:20;;;;;;;2.85;1.38;;;;;;;;;;6187397;23;20021;-83
2020/12/29 02:20:46;;;;;;;2.88;1.52;;;;;;;;;;6186896;23;20024;-82
2020/12/29 02:23:13;;;;;;;2.35;1.20;;;;;;;;;;6187080;23;20055;-83
2020/12/29 02:25:39;;;;;;;2.13;1.27;;;;;;;;;;6187580;23;20024;-83
2020/12/29 02:28:07;;;;;;;2.22;0.98;;;;;;;;;;6187503;23;20080;-83
2020/12/29 02:30:33;;;;;;;3.40;1.10;;;;;;;;;;6187204;23;20021;-82
2020/12/29 02:32:59;;;;;;;2.45;1.15;;;;;;;;;;6187261;23;20017;-82
2020/12/29 02:35:25;;;;;;;1.95;1.25;;;;;;;;;;6186761;23;20029;-82
2020/12/29 02:37:51;;;;;;;2.42;1.17;;;;;;;;;;6187266;23;20053;-82
2020/12/29 02:40:18;;;;;;;1.67;1.02;;;;;;;;;;6186859;23;20053;-82
2020/12/29 02:42:44;;;;;;;2.63;1.45;;;;;;;;;;6187063;23;20029;-82
2020/12/29 02:45:10;;;;;;;2.08;1.00;;;;;;;;;;6186762;23;20032;-82
2020/12/29 02:47:36;;;;;;;4.30;1.40;;;;;;;;;;6187130;23;20063;-82
2020/12/29 02:50:02;;;;;;;2.38;1.08;;;;;;;;;;6186923;23;20024;-82
2020/12/29 02:52:28;;;;;;;3.78;1.30;;;;;;;;;;6186972;23;20025;-81
2020/12/29 02:54:54;;;;;;;3.30;1.20;;;;;;;;;;6186828;23;20021;-82
2020/12/29 02:57:21;;;;;;;2.70;1.40;;;;;;;;;;6186839;23;20021;-82
2020/12/29 02:59:46;;;;;;;2.00;1.20;;;;;;;;;;6187085;23;20442;-82
2020/12/29 03:02:12;;;;;;;3.10;1.40;;;;;;;;;;6187095;23;20048;-82
2020/12/29 03:04:38;;;;;;;2.58;1.25;;;;;;;;;;6186661;23;20470;-81
2020/12/29 03:07:04;;;;;;;1.48;1.00;;;;;;;;;;6186598;23;20525;-82
2020/12/29 03:09:31;;;;;;;2.60;1.33;;;;;;;;;;6186857;23;20028;-81
2020/12/29 03:11:57;;;;;;;3.65;1.42;;;;;;;;;;6186754;23;20037;-82
2020/12/29 03:14:24;;;;;;;2.60;1.23;;;;;;;;;;6186965;23;20537;-82
2020/12/29 03:16:50;;;;;;;2.00;1.27;;;;;;;;;;6186749;23;20021;-83
2020/12/29 03:19:16;;;;;;;4.15;1.30;;;;;;;;;;6186807;23;20064;-83
2020/12/29 03:21:42;;;;;;;3.08;1.45;;;;;;;;;;6187059;23;20067;-82
2020/12/29 03:24:08;;;;;;;2.58;1.10;;;;;;;;;;6186568;23;20045;-82
2020/12/29 03:26:34;;;;;;;3.35;0.98;;;;;;;;;;6186647;23;20442;-82
2020/12/29 03:29:00;;;;;;;2.38;1.13;;;;;;;;;;6186540;23;20032;-82
2020/12/29 03:31:27;;;;;;;1.20;0.70;;;;;;;;;;6186247;23;20045;-81
2020/12/29 03:33:53;;;;;;;1.80;0.70;;;;;;;;;;6185912;23;20467;-81
2020/12/29 03:36:18;;;;;;;1.92;0.77;;;;;;;;;;6186337;23;20096;-82
2020/12/29 03:38:44;;;;;;;1.00;0.70;;;;;;;;;;6186400;23;20099;-82
2020/12/29 03:41:10;;;;;;;1.80;0.90;;;;;;;;;;6186114;23;20024;-82
2020/12/29 03:43:36;;;;;;;3.22;2.20;;;;;;;;;;6186440;23;20029;-81
2020/12/29 03:46:02;;;;;;;1.63;0.75;;;;;;;;;;6186367;23;20028;-81
2020/12/29 03:48:29;;;;;;;1.08;0.68;;;;;;;;;;6186299;23;20032;-82
2020/12/29 03:50:55;;;;;;;1.80;0.80;;;;;;;;;;6186528;23;20025;-81
2020/12/29 03:53:21;;;;;;;1.10;0.50;;;;;;;;;;6186009;23;20055;-82
2020/12/29 03:55:47;;;;;;;1.35;0.70;;;;;;;;;;6185772;23;20028;-81
2020/12/29 03:58:13;;;;;;;0.90;0.50;;;;;;;;;;6186126;23;20025;-82
2020/12/29 04:00:39;;;;;;;2.25;0.90;;;;;;;;;;6185844;23;20048;-81
2020/12/29 04:03:05;;;;;;;1.17;0.70;;;;;;;;;;6185854;23;20017;-82
2020/12/29 04:05:32;;;;;;;2.40;0.60;;;;;;;;;;6185836;23;20032;-81
2020/12/29 04:07:58;;;;;;;1.33;0.50;;;;;;;;;;6186136;23;20496;-82
2020/12/29 04:10:25;;;;;;;1.42;0.80;;;;;;;;;;6185778;23;20096;-81
2020/12/29 04:12:51;;;;;;;1.25;0.57;;;;;;;;;;6185826;23;20423;-80
2020/12/29 04:15:17;;;;;;;0.43;0.22;;;;;;;;;;6185822;23;20017;-82
2020/12/29 04:17:44;;;;;;;1.50;0.63;;;;;;;;;;6185947;23;20027;-83
2020/12/29 04:20:11;;;;;;;1.85;0.60;;;;;;;;;;6185886;23;20382;-83
2020/12/29 04:22:39;;;;;;;1.42;0.57;;;;;;;;;;6185574;23;20028;-82
2020/12/29 04:25:07;;;;;;;0.75;0.38;;;;;;;;;;6185536;23;20373;-83
2020/12/29 04:27:33;;;;;;;0.68;0.35;;;;;;;;;;6186384;23;20025;-84
2020/12/29 04:29:59;;;;;;;0.45;0.40;;;;;;;;;;6185528;23;20068;-82
2020/12/29 04:32:25;;;;;;;0.90;0.45;;;;;;;;;;6186020;23;20450;-83
2020/12/29 04:34:51;;;;;;;1.38;0.50;;;;;;;;;;6185743;23;20029;-82
2020/12/29 04:37:18;;;;;;;1.48;0.60;;;;;;;;;;6185856;23;20028;-82
2020/12/29 04:39:44;;;;;;;1.27;0.57;;;;;;;;;;6185924;23;20025;-83
2020/12/29 04:42:12;;;;;;;1.30;0.60;;;;;;;;;;6185980;23;20095;-82
2020/12/29 04:44:39;;;;;;;1.17;0.57;;;;;;;;;;6185972;23;20025;-82
2020/12/29 04:47:05;;;;;;;1.27;0.55;;;;;;;;;;6187584;23;20028;-82
2020/12/29 04:49:32;;;;;;;2.22;0.30;;;;;;;;;;6187649;23;20083;-82
2020/12/29 04:51:58;;;;;;;1.75;0.65;;;;;;;;;;6188005;23;20028;-83
2020/12/29 04:54:26;;;;;;;1.30;0.40;;;;;;;;;;6187772;23;20079;-82
2020/12/29 04:56:56;;;;;;;1.55;0.85;;;;;;;;;;6188254;23;20025;-82
2020/12/29 04:59:22;;;;;;;1.23;0.47;;;;;;;;;;6188543;23;20021;-82
2020/12/29 05:01:48;;;;;;;0.73;0.40;;;;;;;;;;6187245;23;20385;-82
2020/12/29 05:04:14;;;;;;;2.03;0.77;;;;;;;;;;6187286;23;20025;-83
2020/12/29 05:06:40;;;;;;;1.48;0.52;;;;;;;;;;6187126;23;20079;-82
2020/12/29 05:09:06;;;;;;;1.05;0.45;;;;;;;;;;6187665;23;20024;-82
2020/12/29 05:11:33;;;;;;;1.17;0.50;;;;;;;;;;6187454;23;20335;-83
2020/12/29 05:14:01;;;;;;;2.10;0.77;;;;;;;;;;6187360;23;20074;-84
2020/12/29 05:16:30;;;;;;;1.58;0.70;;;;;;;;;;6188008;23;20021;-82
2020/12/29 05:18:57;;;;;;;1.92;0.60;;;;;;;;;;6186570;23;20021;-82
2020/12/29 05:21:24;;;;;;;2.47;0.68;;;;;;;;;;6187323;23;20017;-83
2020/12/29 05:23:50;;;;;;;2.35;0.45;;;;;;;;;;6187312;23;20320;-83
2020/12/29 05:26:17;;;;;;;1.00;0.63;;;;;;;;;;6187620;23;20020;-83
2020/12/29 05:28:45;;;;;;;2.80;0.60;;;;;;;;;;6187420;23;20032;-83
2020/12/29 05:31:12;;;;;;;3.25;0.70;;;;;;;;;;6187508;23;20028;-83
2020/12/29 05:33:39;;;;;;;2.58;0.80;;;;;;;;;;6187050;23;20390;-82
2020/12/29 05:36:05;;;;;;;4.50;0.82;;;;;;;;;;6187557;23;20021;-84
2020/12/29 05:38:32;;;;;;;3.35;0.68;;;;;;;;;;6187232;23;20462;-83
2020/12/29 05:40:59;;;;;;;0.73;0.50;;;;;;;;;;6187118;23;20025;-82
2020/12/29 05:43:29;;;;;;;1.52;0.47;;;;;;;;;;6187322;23;20025;-83
2020/12/29 05:45:57;;;;;;;3.00;0.88;;;;;;;;;;6187331;23;20021;-83
2020/12/29 05:48:24;;;;;;;1.83;0.70;;;;;;;;;;6187528;23;20025;-83
2020/12/29 05:50:50;;;;;;;0.95;0.50;;;;;;;;;;6187307;23;20097;-82
2020/12/29 05:53:20;;;;;;;3.30;0.70;;;;;;;;;;6187533;23;20021;-83
2020/12/29 05:55:46;;;;;;;0.95;0.38;;;;;;;;;;6187541;23;20342;-84
2020/12/29 05:58:12;;;;;;;1.48;0.60;;;;;;;;;;6186792;23;20025;-83
2020/12/29 06:00:39;;;;;;;1.70;0.60;;;;;;;;;;6187215;23;20076;-82
2020/12/29 06:03:06;;;;;;;4.20;0.88;;;;;;;;;;6187234;23;20071;-82
2020/12/29 06:05:35;;;;;;;3.75;0.60;;;;;;;;;;6188029;23;20251;-84
2020/12/29 06:08:03;;;;;;;2.30;0.50;;;;;;;;;;6188005;23;20021;-83
2020/12/29 06:10:30;;;;;;;1.75;0.70;;;;;;;;;;6188166;23;20017;-83
2020/12/29 06:12:57;;;;;;;3.35;0.85;;;;;;;;;;6188683;23;20021;-82
2020/12/29 06:15:25;;;;;;;3.25;1.20;;;;;;;;;;6187550;23;20031;-83
2020/12/29 06:17:54;;;;;;;1.50;0.77;;;;;;;;;;6187711;23;20417;-83
2020/12/29 06:20:20;;;;;;;2.30;0.73;;;;;;;;;;6187373;23;20024;-82
2020/12/29 06:22:51;;;;;;;2.03;0.57;;;;;;;;;;6187373;23;20029;-82
2020/12/29 06:25:18;;;;;;;0.80;0.32;;;;;;;;;;6187229;23;20027;-82
2020/12/29 06:27:50;;;;;;;2.95;0.70;;;;;;;;;;6187664;23;20334;-82
2020/12/29 06:30:18;;;;;;;3.03;0.82;;;;;;;;;;6186997;23;20458;-82
2020/12/29 06:32:45;;;;;;;3.55;0.63;;;;;;;;;;6187250;23;20024;-84
2020/12/29 06:35:11;;;;;;;1.58;0.70;;;;;;;;;;6187150;23;20036;-83
2020/12/29 06:37:40;;;;;;;3.30;1.00;;;;;;;;;;6186835;23;20341;-83
2020/12/29 06:40:07;;;;;;;1.77;0.73;;;;;;;;;;6187157;23;20017;-83
2020/12/29 06:42:34;;;;;;;1.95;0.63;;;;;;;;;;6187628;23;20017;-83
2020/12/29 06:45:06;;;;;;;3.00;0.85;;;;;;;;;;6187784;23;20021;-83
2020/12/29 06:47:32;;;;;;;3.78;0.80;;;;;;;;;;6187138;23;20025;-82
2020/12/29 06:49:58;;;;;;;2.78;0.77;;;;;;;;;;6187152;23;20028;-81
2020/12/29 06:52:32;;;;;;;3.97;0.80;;;;;;;;;;6187194;23;20017;-83
2020/12/29 06:55:00;;;;;;;4.05;0.60;;;;;;;;;;6187058;23;20028;-82
2020/12/29 06:57:46;;;;;;;3.28;0.68;;;;;;;;;;6186633;23;20075;-83
2020/12/29 07:00:19;;;;;;;2.65;0.57;;;;;;;;;;6186884;23;20025;-83
2020/12/29 07:02:46;;;;;;;3.15;0.50;;;;;;;;;;6186617;23;20017;-82
2020/12/29 07:05:14;;;;;;;3.90;0.60;;;;;;;;;;6186524;23;20354;-83
2020/12/29 07:07:46;;;;;;;2.05;0.60;;;;;;;;;;6186036;23;20593;-83
2020/12/29 07:10:13;;;;;;;1.25;0.50;;;;;;;;;;6186693;23;20052;-82
2020/12/29 07:12:48;;;;;;;1.65;0.52;;;;;;;;;;6187089;23;20455;-83
2020/12/29 07:15:15;;;;;;;2.63;0.60;;;;;;;;;;6187931;23;20476;-82
2020/12/29 07:17:53;;;;;;;3.22;0.70;;;;;;;;;;6186995;23;20091;-83
2020/12/29 07:20:22;;;;;;;2.45;0.80;;;;;;;;;;6186964;23;20026;-82
2020/12/29 07:22:56;;;;;;;4.03;0.82;;;;;;;;;;6186593;23;20025;-82
2020/12/29 07:25:24;;;;;;;3.40;0.80;;;;;;;;;;6186877;23;20029;-83
2020/12/29 07:27:53;;;;;;;4.30;0.90;;;;;;;;;;6186289;23;20025;-82
2020/12/29 07:30:19;;;;;;;2.53;0.70;;;;;;;;;;6187107;23;20025;-81
2020/12/29 07:32:46;;;;;;;2.15;0.90;;;;;;;;;;6186406;23;20024;-82
2020/12/29 07:35:12;;;;;;;3.22;0.80;;;;;;;;;;6185972;23;20033;-83
2020/12/29 07:37:40;;;;;;;1.55;0.60;;;;;;;;;;6186692;23;20050;-83
2020/12/29 07:40:07;;;;;;;2.58;1.15;;;;;;;;;;6186345;23;20458;-83
2020/12/29 07:42:32;;;;;;;2.00;0.63;;;;;;;;;;6186201;23;20028;-83
2020/12/29 07:44:59;;;;;;;2.10;0.68;;;;;;;;;;6186891;23;20021;-82
2020/12/29 07:47:25;;;;;;;3.58;0.63;;;;;;;;;;6187070;23;20028;-82
2020/12/29 07:49:53;;;;;;;2.10;0.60;;;;;;;;;;6186438;23;20041;-83
2020/12/29 07:52:23;;;;;;;2.72;0.60;;;;;;;;;;6186570;23;20021;-82
2020/12/29 07:55:06;;;;;;;5.72;0.75;;;;;;;;;;6186236;23;20017;-81
2020/12/29 07:57:33;;;;;;;3.15;0.70;;;;;;;;;;6186057;23;20025;-82
2020/12/29 08:00:07;;;;;;;2.70;0.82;;;;;;;;;;6185584;23;20083;-82
2020/12/29 08:02:33;;;;;;;5.57;0.90;;;;;;;;;;6185814;23;20021;-82
2020/12/29 08:04:59;;;;;;;3.22;0.80;;;;;;;;;;6186066;23;20049;-81
2020/12/29 08:07:25;;;;;;;3.72;1.20;;;;;;;;;;6186406;23;20124;-82
2020/12/29 08:09:51;;;;;;;7.70;3.33;;;;;;;;;;6186088;23;20025;-81
2020/12/29 08:12:18;;;;;;;8.70;3.33;;;;;;;;;;6185751;23;20393;-81
2020/12/29 08:14:44;;;;;;;8.93;3.22;;;;;;;;;;6185594;23;20029;-82
2020/12/29 08:17:11;;;;;;;5.13;1.10;;;;;;;;;;6186125;23;20017;-81
2020/12/29 08:19:38;;;;;;;8.35;2.20;;;;;;;;;;6185859;23;20065;-82
2020/12/29 08:22:05;;;;;;;5.03;2.67;;;;;;;;;;6185575;23;20020;-82
2020/12/29 08:24:31;;;;;;;7.72;3.65;;;;;;;;;;6185046;23;20021;-83
2020/12/29 08:26:57;;;;;;;2.13;0.93;;;;;;;;;;6185613;23;20025;-83
2020/12/29 08:29:24;;;;;;;4.07;1.63;;;;;;;;;;6185584;23;20033;-82
2020/12/29 08:32:04;;;;;;;3.47;1.10;;;;;;;;;;6185124;23;20025;-82
2020/12/29 08:34:31;;;;;;;1.95;0.70;;;;;;;;;;6186548;23;20068;-83
2020/12/29 08:36:58;;;;;;;2.33;0.80;;;;;;;;;;6186950;23;20346;-82
2020/12/29 08:39:28;;;;;;;4.18;1.15;;;;;;;;;;6186301;23;20442;-82
2020/12/29 08:41:57;;;;;;;2.40;1.10;;;;;;;;;;6186437;23;20371;-82
2020/12/29 08:44:24;;;;;;;3.05;1.00;;;;;;;;;;6186056;23;20447;-82
2020/12/29 08:46:51;;;;;;;2.90;0.93;;;;;;;;;;6186764;23;20032;-82
2020/12/29 08:49:17;;;;;;;1.77;0.75;;;;;;;;;;6186816;23;20397;-83
2020/12/29 08:51:45;;;;;;;2.45;0.80;;;;;;;;;;6186417;23;20049;-83
2020/12/29 08:54:12;;;;;;;3.63;0.88;;;;;;;;;;6185751;23;20342;-82
2020/12/29 08:56:39;;;;;;;3.45;0.77;;;;;;;;;;6186159;23;20474;-85
2020/12/29 08:59:12;;;;;;;2.47;0.80;;;;;;;;;;6185054;23;20031;-84
2020/12/29 09:01:40;;;;;;;1.95;0.88;;;;;;;;;;6187215;23;20024;-84
2020/12/29 09:04:27;;;;;;;1.67;0.73;;;;;;;;;;6186828;23;20017;-84
2020/12/29 09:06:59;;;;;;;1.70;0.88;;;;;;;;;;6187451;23;20021;-84
2020/12/29 09:09:27;;;;;;;2.47;0.77;;;;;;;;;;6186533;23;20024;-83
2020/12/29 09:12:11;;;;;;;1.50;0.80;;;;;;;;;;6188306;23;20021;-84
2020/12/29 09:14:38;;;;;;;2.50;0.80;;;;;;;;;;6187638;23;20025;-84
2020/12/29 09:17:06;;;;;;;1.98;0.80;;;;;;;;;;6186270;23;20021;-84
2020/12/29 09:19:32;;;;;;;6.85;0.98;;;;;;;;;;6186359;23;20048;-83
2020/12/29 09:22:10;;;;;;;3.03;0.70;;;;;;;;;;6185072;23;20028;-83
2020/12/29 09:24:37;;;;;;;2.10;0.85;;;;;;;;;;6185906;23;20047;-85
2020/12/29 09:27:04;;;;;;;5.45;1.17;;;;;;;;;;6185480;23;20047;-83
2020/12/29 09:29:33;;;;;;;2.03;0.98;;;;;;;;;;6185083;23;20017;-84
2020/12/29 09:31:59;;;;;;;3.10;0.85;;;;;;;;;;6186194;23;20033;-85
2020/12/29 09:34:25;;;;;;;2.67;0.77;;;;;;;;;;6184917;23;20708;-84
2020/12/29 09:36:51;;;;;;;3.63;0.80;;;;;;;;;;6187516;23;20044;-84
2020/12/29 09:39:17;;;;;;;2.88;0.93;;;;;;;;;;6188023;23;20028;-84
2020/12/29 09:41:43;;;;;;;4.10;0.90;;;;;;;;;;6187546;23;20068;-84
2020/12/29 09:44:09;;;;;;;3.42;1.20;;;;;;;;;;6186979;23;20020;-84
2020/12/29 09:46:36;;;;;;;5.32;1.00;;;;;;;;;;6187787;23;20025;-83
2020/12/29 09:49:03;;;;;;;4.00;0.90;;;;;;;;;;6187797;23;20780;-84
2020/12/29 09:51:29;;;;;;;4.20;1.17;;;;;;;;;;6187968;23;20682;-84
2020/12/29 09:53:55;;;;;;;4.88;1.30;;;;;;;;;;6188702;23;20025;-86
2020/12/29 09:56:22;;;;;;;6.93;1.08;;;;;;;;;;6188379;23;20040;-86
2020/12/29 09:58:48;;;;;;;5.78;1.00;;;;;;;;;;6189004;23;20021;-86
2020/12/29 10:01:14;;;;;;;2.47;0.70;;;;;;;;;;6187258;23;20017;-86
2020/12/29 10:03:40;;;;;;;2.83;1.13;;;;;;;;;;6187949;23;20017;-84
2020/12/29 10:06:06;;;;;;;4.22;0.90;;;;;;;;;;6188925;23;20021;-85
2020/12/29 10:08:32;;;;;;;1.45;0.70;;;;;;;;;;6189357;23;20052;-86
2020/12/29 10:10:58;;;;;;;1.75;0.75;;;;;;;;;;6189197;23;20050;-85
2020/12/29 10:13:25;;;;;;;2.70;0.80;;;;;;;;;;6188900;23;20100;-85
2020/12/29 10:15:52;;;;;;;3.67;1.05;;;;;;;;;;6188405;23;20442;-84
2020/12/29 10:18:18;;;;;;;1.48;0.55;;;;;;;;;;6188715;23;20025;-84
2020/12/29 10:20:43;;;;;;;1.83;0.52;;;;;;;;;;6188191;23;20025;-85
2020/12/29 10:23:09;;;;;;;3.80;1.50;;;;;;;;;;6188124;23;20498;-85
2020/12/29 10:25:35;;;;;;;2.67;0.63;;;;;;;;;;6188165;23;20024;-85
2020/12/29 10:28:01;;;;;;;2.80;0.73;;;;;;;;;;6188119;23;20021;-85
2020/12/29 10:30:28;;;;;;;3.28;0.80;;;;;;;;;;6189064;23;20017;-85
2020/12/29 10:32:54;;;;;;;4.03;1.10;;;;;;;;;;6189030;23;20071;-84
2020/12/29 10:35:20;;;;;;;4.75;1.17;;;;;;;;;;6188505;23;20021;-85
2020/12/29 10:37:47;;;;;;;2.40;1.10;;;;;;;;;;6188395;23;20048;-85
2020/12/29 10:40:13;;;;;;;3.10;0.95;;;;;;;;;;6189257;23;20021;-84
2020/12/29 10:42:39;;;;;;;2.67;1.05;;;;;;;;;;6187670;23;20469;-84
2020/12/29 10:45:05;;;;;;;3.33;1.05;;;;;;;;;;6187854;23;20030;-84
2020/12/29 10:47:32;;;;;;;4.70;1.45;;;;;;;;;;6188555;23;20021;-84
2020/12/29 10:49:58;;;;;;;3.85;1.38;;;;;;;;;;6187706;23;20021;-84
2020/12/29 10:52:24;;;;;;;2.72;0.73;;;;;;;;;;6188545;23;20025;-85
2020/12/29 10:54:50;;;;;;;2.00;0.80;;;;;;;;;;6188704;23;20056;-84
2020/12/29 10:57:16;;;;;;;1.85;0.70;;;;;;;;;;6188445;23;20331;-85
2020/12/29 10:59:42;;;;;;;1.83;0.50;;;;;;;;;;6188655;23;20239;-86
2020/12/29 11:02:09;;;;;;;2.33;0.70;;;;;;;;;;6189695;23;20021;-85
2020/12/29 11:04:35;;;;;;;1.52;0.63;;;;;;;;;;6187739;23;20025;-85
2020/12/29 11:07:01;;;;;;;1.23;0.70;;;;;;;;;;6188648;23;20079;-85
2020/12/29 11:09:27;;;;;;;3.38;0.70;;;;;;;;;;6188316;23;20017;-84
2020/12/29 11:11:53;;;;;;;2.67;0.90;;;;;;;;;;6187980;23;20021;-85
2020/12/29 11:14:19;;;;;;;3.00;0.85;;;;;;;;;;6188578;23;20040;-85
2020/12/29 11:16:48;;;;;;;2.17;0.70;;;;;;;;;;6188585;23;20041;-84
2020/12/29 11:19:14;;;;;;;2.58;1.00;;;;;;;;;;6188096;23;20025;-85
2020/12/29 11:21:41;;;;;;;2.28;0.70;;;;;;;;;;6189594;23;20083;-84
2020/12/29 11:24:07;;;;;;;4.18;0.90;;;;;;;;;;6188502;23;20021;-84
2020/12/29 11:26:33;;;;;;;3.55;1.45;;;;;;;;;;6188062;23;20071;-84
2020/12/29 11:28:59;;;;;;;3.00;0.90;;;;;;;;;;6188536;23;20021;-84
2020/12/29 11:31:25;;;;;;;3.20;1.05;;;;;;;;;;6190151;23;20024;-85
2020/12/29 11:33:51;;;;;;;3.45;1.00;;;;;;;;;;6188530;23;20055;-85
2020/12/29 11:36:18;;;;;;;2.00;1.08;;;;;;;;;;6188012;23;20017;-85
2020/12/29 11:38:46;;;;;;;3.65;0.80;;;;;;;;;;6187705;23;20021;-86
2020/12/29 11:41:12;;;;;;;1.95;0.65;;;;;;;;;;6187516;23;20341;-87
2020/12/29 11:43:38;;;;;;;3.58;1.50;;;;;;;;;;6187176;23;20028;-85
2020/12/29 11:46:05;;;;;;;4.82;0.60;;;;;;;;;;6187115;23;20081;-87
2020/12/29 11:48:31;;;;;;;1.83;0.95;;;;;;;;;;6186456;23;20063;-85
2020/12/29 11:50:57;;;;;;;2.28;0.88;;;;;;;;;;6186996;23;20028;-87
2020/12/29 11:53:23;;;;;;;2.90;1.02;;;;;;;;;;6187442;23;20025;-88
2020/12/29 11:55:49;;;;;;;2.80;0.60;;;;;;;;;;6187018;23;20148;-85
2020/12/29 11:58:16;;;;;;;4.00;0.60;;;;;;;;;;6187982;23;20021;-86
2020/12/29 12:00:42;;;;;;;1.42;0.80;;;;;;;;;;6186915;23;20032;-88
2020/12/29 12:03:08;;;;;;;1.70;0.70;;;;;;;;;;6186056;23;20079;-85
2020/12/29 12:05:34;;;;;;;1.63;0.60;;;;;;;;;;6187490;23;20021;-86
2020/12/29 12:08:00;;;;;;;1.88;0.50;;;;;;;;;;6187712;23;20021;-85
2020/12/29 12:10:26;;;;;;;3.28;0.57;;;;;;;;;;6187400;23;20105;-85
2020/12/29 12:12:53;;;;;;;1.35;0.65;;;;;;;;;;6186406;23;20051;-88
2020/12/29 12:15:19;;;;;;;1.73;0.57;;;;;;;;;;6186727;23;20024;-86
2020/12/29 12:17:45;;;;;;;5.55;0.75;;;;;;;;;;6187032;23;20016;-85
2020/12/29 12:20:11;;;;;;;2.45;0.50;;;;;;;;;;6186746;23;20100;-86
2020/12/29 12:22:37;;;;;;;3.90;0.80;;;;;;;;;;6185598;23;20021;-86
2020/12/29 12:25:03;;;;;;;1.75;0.70;;;;;;;;;;6186496;23;20040;-88
2020/12/29 12:27:29;;;;;;;1.40;0.60;;;;;;;;;;6187221;23;20100;-87
2020/12/29 12:29:56;;;;;;;3.83;0.77;;;;;;;;;;6186589;23;20067;-87
2020/12/29 12:32:22;;;;;;;1.85;0.60;;;;;;;;;;6186162;23;20020;-87
2020/12/29 12:34:48;;;;;;;2.88;0.57;;;;;;;;;;6186048;23;20025;-87
2020/12/29 12:37:14;;;;;;;2.90;0.73;;;;;;;;;;6186008;23;20062;-87
2020/12/29 12:39:40;;;;;;;2.80;0.90;;;;;;;;;;6185767;23;20017;-87
2020/12/29 12:42:07;;;;;;;3.88;0.93;;;;;;;;;;6185428;23;20410;-87
2020/12/29 12:44:33;;;;;;;2.53;0.80;;;;;;;;;;6186637;23;20059;-87
2020/12/29 12:47:00;;;;;;;3.50;0.93;;;;;;;;;;6185022;23;20025;-87
2020/12/29 12:49:25;;;;;;;2.30;1.13;;;;;;;;;;6185141;23;20017;-87
2020/12/29 12:51:51;;;;;;;1.35;0.50;;;;;;;;;;6185836;23;20056;-87
2020/12/29 12:54:17;;;;;;;5.50;0.73;;;;;;;;;;6185803;23;20021;-87
2020/12/29 12:56:43;;;;;;;1.75;0.65;;;;;;;;;;6184963;23;20021;-87
2020/12/29 12:59:11;;;;;;;1.08;0.30;;;;;;;;;;6183199;23;20075;-86
2020/12/29 13:01:37;;;;;;;5.40;0.63;;;;;;;;;;6182999;23;20021;-86
2020/12/29 13:04:04;;;;;;;3.75;0.55;;;;;;;;;;6183925;23;20032;-87
2020/12/29 13:06:30;;;;;;;4.15;2.15;;;;;;;;;;6184373;23;20021;-87
2020/12/29 13:08:56;;;;;;;1.52;0.52;;;;;;;;;;6187154;23;20088;-87
2020/12/29 13:11:22;;;;;;;3.83;0.50;;;;;;;;;;6186678;23;20379;-87
2020/12/29 13:13:48;;;;;;;3.17;0.60;;;;;;;;;;6186191;23;20025;-87
2020/12/29 13:16:18;;;;;;;1.00;0.50;;;;;;;;;;6182543;23;20017;-87
2020/12/29 13:18:44;;;;;;;1.33;0.65;;;;;;;;;;6186696;23;20025;-87
2020/12/29 13:21:10;;;;;;;3.17;0.68;;;;;;;;;;6186579;23;20377;-87
2020/12/29 13:23:36;;;;;;;1.23;0.52;;;;;;;;;;6187426;23;20013;-87
2020/12/29 13:26:02;;;;;;;3.95;0.88;;;;;;;;;;6187178;23;20152;-88
2020/12/29 13:28:28;;;;;;;3.28;0.93;;;;;;;;;;6187307;23;20104;-87
2020/12/29 13:30:54;;;;;;;1.90;0.70;;;;;;;;;;6187472;23;20346;-87
2020/12/29 13:33:20;;;;;;;1.88;0.50;;;;;;;;;;6187423;23;20020;-87
2020/12/29 13:35:46;;;;;;;0.90;0.40;;;;;;;;;;6187129;23;20102;-87
2020/12/29 13:38:13;;;;;;;4.50;1.92;;;;;;;;;;6186983;23;20024;-88
2020/12/29 13:40:39;;;;;;;2.50;0.93;;;;;;;;;;6187560;23;20052;-87
2020/12/29 13:43:05;;;;;;;1.23;0.52;;;;;;;;;;6187457;23;20338;-87
2020/12/29 13:45:31;;;;;;;2.08;0.95;;;;;;;;;;6187459;23;20070;-87
2020/12/29 13:47:57;;;;;;;2.28;0.65;;;;;;;;;;6186890;23;20343;-88
2020/12/29 13:50:23;;;;;;;1.58;0.52;;;;;;;;;;6187224;23;20021;-87
2020/12/29 13:52:50;;;;;;;1.67;0.90;;;;;;;;;;6187660;23;20039;-87
2020/12/29 13:55:17;;;;;;;1.80;1.00;;;;;;;;;;6186987;23;20557;-88
2020/12/29 13:57:43;;;;;;;2.17;1.02;;;;;;;;;;6187127;23;20032;-87
2020/12/29 14:00:09;;;;;;;2.45;1.02;;;;;;;;;;6186101;23;20021;-88
2020/12/29 14:02:35;;;;;;;6.75;1.00;;;;;;;;;;6185856;23;20493;-87
2020/12/29 14:05:01;;;;;;;4.40;1.48;;;;;;;;;;6186259;23;20053;-87
2020/12/29 14:07:27;;;;;;;1.75;1.10;;;;;;;;;;6187267;23;20049;-87
2020/12/29 14:09:52;;;;;;;2.38;1.00;;;;;;;;;;6185618;23;20060;-88
2020/12/29 14:12:19;;;;;;;3.17;1.30;;;;;;;;;;6186616;23;20343;-87
2020/12/29 14:14:45;;;;;;;3.30;1.33;;;;;;;;;;6186976;23;20025;-87
2020/12/29 14:17:11;;;;;;;1.55;0.80;;;;;;;;;;6185901;23;20021;-87
2020/12/29 14:19:37;;;;;;;5.82;1.98;;;;;;;;;;6186637;23;20024;-88
2020/12/29 14:22:03;;;;;;;11.57;3.08;;;;;;;;;;6186914;23;20071;-86
2020/12/29 14:24:29;;;;;;;3.50;1.45;;;;;;;;;;6186704;23;20021;-87
2020/12/29 14:26:55;;;;;;;4.60;2.03;;;;;;;;;;6186852;23;20378;-87
2020/12/29 14:29:23;;;;;;;6.90;2.10;;;;;;;;;;6186520;23;20021;-87
2020/12/29 14:31:51;;;;;;;10.05;3.22;;;;;;;;;;6184971;23;20028;-88
2020/12/29 14:34:17;;;;;;;6.38;2.33;;;;;;;;;;6187424;23;20389;-87
2020/12/29 14:36:44;;;;;;;3.58;1.30;;;;;;;;;;6187704;23;20052;-87
2020/12/29 14:39:11;;;;;;;3.90;1.42;;;;;;;;;;6188049;23;20021;-87
2020/12/29 14:41:40;;;;;;;7.38;2.30;;;;;;;;;;6188200;23;20443;-87